Sible Hedingham, United Kingdom
Current Conditions -  °F | °C
As of 11:50 AM on Friday 28 Nov 2014 (Local Time) from EGSS Reporting Station
Overcast Overcast  
Wind Chill: 52°   Ceiling: 600
Heat Index: 52°   Visibility: 4mi
Dew Point: 50°   Wind: 15mph
Humidity: 94%   Direction: 90°E
Pressure: 29.62"   Gusts: NA
Location:  51.98°N, 0.59°E
Report Text: EGSS 281150Z AUTO 09013KT 6000 OVC006 11/10 Q1003
Loading
Personal Weather Stations






























Interactive Weather Map New forecast layout! Learn more

10-Day Weather Forecast

Advertisements
Track Severe Weather on mobile